Time;durP1;ratioP1;P1;durP2;ratioP2;P2;SDS_P1;SDS_P2;PMS_P1;PMS_P2;Temp;Humidity;BMP_temperature;BMP_pressure;BME280_temperature;BME280_humidity;BME280_pressure;Samples;Min_cycle;Max_cycle;Signal;HPM_P1;HPM_P2
2021/11/03 00:02:34;;;;;;;16.40;11.60;;;;;;;8.46;79.79;98608.71;230311;1191;139938;-73
2021/11/03 00:07:41;;;;;;;17.60;11.10;;;;;;;8.53;79.80;98609.76;230786;1190;139724;-74
2021/11/03 00:12:55;;;;;;;;;;;;;;;;;;;;;
2021/11/03 00:17:58;;;;;;;18.60;12.50;;;;;;;8.50;79.56;98613.92;231344;1190;138672;-76
2021/11/03 00:23:00;;;;;;;18.00;12.40;;;;;;;8.56;79.66;98618.00;231164;1190;139142;-77
2021/11/03 00:28:03;;;;;;;37.70;14.70;;;;;;;8.63;79.85;98621.64;231103;1190;139505;-79
2021/11/03 00:33:07;;;;;;;21.60;13.00;;;;;;;8.69;79.70;98628.56;230988;1190;141614;-78
2021/11/03 00:38:11;;;;;;;15.40;12.70;;;;;;;8.71;79.68;98630.45;230371;1190;138529;-78
2021/11/03 00:43:14;;;;;;;16.50;11.70;;;;;;;8.75;79.58;98628.21;229986;1190;139638;-78
2021/11/03 00:48:17;;;;;;;16.40;12.50;;;;;;;8.74;79.57;98631.07;229448;1190;140187;-75
2021/11/03 00:53:23;;;;;;;19.30;13.60;;;;;;;8.72;79.72;98630.67;229277;1190;140261;-80
2021/11/03 00:58:29;;;;;;;19.00;13.10;;;;;;;8.74;79.78;98628.63;229690;1190;139500;-72
2021/11/03 01:03:32;;;;;;;18.00;13.40;;;;;;;8.74;79.44;98632.77;229707;1190;139449;-70
2021/11/03 01:08:38;;;;;;;21.90;14.70;;;;;;;8.71;79.68;98638.42;229297;1190;140055;-77
2021/11/03 01:13:42;;;;;;;21.00;13.20;;;;;;;8.66;79.62;98640.27;229807;1190;139594;-74
2021/11/03 01:18:45;;;;;;;19.50;13.40;;;;;;;8.62;79.52;98638.96;230036;1190;139057;-80
2021/11/03 01:23:50;;;;;;;20.20;14.80;;;;;;;8.61;79.64;98643.98;229999;1190;139365;-75
2021/11/03 01:29:12;;;;;;;19.40;15.30;;;;;;;8.60;79.65;98642.91;230354;1190;139338;-74
2021/11/03 01:34:17;;;;;;;22.60;16.40;;;;;;;8.55;79.40;98646.75;229741;1190;138702;-76
2021/11/03 01:39:20;;;;;;;19.20;15.50;;;;;;;8.53;79.63;98643.27;230082;1190;140941;-79
2021/11/03 01:44:26;;;;;;;20.30;14.80;;;;;;;8.55;79.68;98642.35;229785;1190;140301;-74
2021/11/03 01:49:30;;;;;;;22.70;13.90;;;;;;;8.56;79.61;98645.52;229466;1190;140609;-75
2021/11/03 01:54:40;;;;;;;21.10;14.40;;;;;;;8.52;79.40;98647.56;229761;1190;139873;-76
2021/11/03 01:59:47;;;;;;;22.00;14.90;;;;;;;8.50;79.34;98646.85;230365;1190;139479;-75
2021/11/03 02:04:51;;;;;;;22.10;13.70;;;;;;;8.44;79.35;98653.46;229659;1190;139312;-72
2021/11/03 02:09:55;;;;;;;20.60;14.90;;;;;;;8.34;79.04;98650.66;230896;1190;138853;-80
2021/11/03 02:14:57;;;;;;;20.70;14.40;;;;;;;8.24;79.27;98646.71;231178;1190;139506;-73
2021/11/03 02:20:02;;;;;;;21.80;14.00;;;;;;;8.17;79.04;98649.64;231202;1190;140068;-75
2021/11/03 02:25:08;;;;;;;17.70;13.90;;;;;;;8.11;78.58;98649.44;231052;1190;140843;-73
2021/11/03 02:30:18;;;;;;;25.60;15.90;;;;;;;8.04;78.94;98644.67;230206;1190;139299;-70
2021/11/03 02:35:22;;;;;;;21.50;13.20;;;;;;;8.03;79.10;98645.19;231515;1190;141684;-81
2021/11/03 02:40:47;;;;;;;21.60;12.70;;;;;;;8.02;79.08;98645.61;229486;1190;144250;-72
2021/11/03 02:45:55;;;;;;;18.40;13.30;;;;;;;8.03;79.02;98647.15;230244;1190;140472;-72
2021/11/03 02:51:23;;;;;;;24.70;16.30;;;;;;;8.01;79.42;98649.98;229454;1190;138724;-75
2021/11/03 02:56:30;;;;;;;18.80;12.40;;;;;;;8.04;79.60;98651.95;229099;1190;139696;-73
2021/11/03 03:01:41;;;;;;;26.10;15.20;;;;;;;7.98;79.17;98649.67;229608;1190;140399;-78
2021/11/03 03:06:45;;;;;;;23.90;16.00;;;;;;;7.92;79.35;98653.22;230561;1190;139892;-74
2021/11/03 03:11:52;;;;;;;23.20;15.50;;;;;;;7.89;79.75;98660.34;229967;1190;139467;-75
2021/11/03 03:16:58;;;;;;;25.00;14.30;;;;;;;7.93;79.83;98659.92;229805;1191;140118;-73
2021/11/03 03:22:01;;;;;;;23.00;16.10;;;;;;;7.93;79.57;98659.47;229197;1190;140300;-74
2021/11/03 03:27:04;;;;;;;23.80;14.40;;;;;;;7.93;79.94;98661.59;229003;1190;141637;-77
2021/11/03 03:32:11;;;;;;;21.00;14.90;;;;;;;7.97;79.86;98661.92;229343;1190;140492;-79
2021/11/03 03:37:14;;;;;;;28.70;16.30;;;;;;;8.02;80.12;98660.30;229929;1190;141204;-77
2021/11/03 03:42:17;;;;;;;20.40;15.10;;;;;;;8.04;79.95;98670.11;229346;1187;140937;-78
2021/11/03 03:47:23;;;;;;;23.10;15.10;;;;;;;8.02;79.91;98674.90;229688;1190;152272;-79
2021/11/03 03:52:29;;;;;;;24.10;16.00;;;;;;;8.00;80.03;98674.87;229918;1190;141003;-78
2021/11/03 03:57:33;;;;;;;21.20;14.40;;;;;;;8.02;79.92;98678.61;229463;1190;140957;-78
2021/11/03 04:02:36;;;;;;;22.00;15.00;;;;;;;8.08;80.27;98680.63;229517;1190;140063;-79
2021/11/03 04:07:39;;;;;;;27.00;16.60;;;;;;;8.07;80.27;98678.48;229993;1190;140574;-79
2021/11/03 04:12:41;;;;;;;24.70;13.90;;;;;;;8.04;80.02;98672.98;230794;1190;141433;-78
2021/11/03 04:17:44;;;;;;;20.10;14.10;;;;;;;8.07;79.77;98683.75;229259;1190;141379;-75
2021/11/03 04:22:50;;;;;;;22.50;13.70;;;;;;;8.09;79.95;98685.67;230078;1190;141453;-78
2021/11/03 04:27:52;;;;;;;22.90;14.70;;;;;;;8.05;79.93;98687.59;230559;1190;140948;-78
2021/11/03 04:32:55;;;;;;;20.30;13.70;;;;;;;8.09;79.71;98690.52;231084;1190;143261;-75
2021/11/03 04:37:58;;;;;;;21.20;13.70;;;;;;;8.03;79.42;98685.95;230245;1190;139785;-77
2021/11/03 04:43:01;;;;;;;21.10;13.50;;;;;;;7.91;79.19;98693.27;230498;1190;139033;-79
2021/11/03 04:48:06;;;;;;;22.10;12.00;;;;;;;7.79;78.70;98704.71;230003;1190;140011;-78
2021/11/03 04:53:10;;;;;;;19.80;13.40;;;;;;;7.71;78.81;98708.60;230637;1190;140953;-78
2021/11/03 04:58:15;;;;;;;19.70;13.60;;;;;;;7.65;78.83;98710.05;229438;1190;139188;-71
2021/11/03 05:03:21;;;;;;;23.30;13.10;;;;;;;7.58;79.15;98716.85;230366;1190;138916;-72
2021/11/03 05:08:25;;;;;;;20.10;14.30;;;;;;;7.52;79.24;98719.02;230248;1190;139977;-78
2021/11/03 05:13:28;;;;;;;20.50;12.90;;;;;;;7.49;79.55;98722.52;229480;1190;143049;-77
2021/11/03 05:18:32;;;;;;;18.50;11.30;;;;;;;7.52;79.61;98728.36;229914;1190;140891;-75
2021/11/03 05:23:35;;;;;;;23.40;13.20;;;;;;;7.50;79.52;98726.83;229818;1190;139816;-75
2021/11/03 05:28:39;;;;;;;16.90;12.20;;;;;;;7.41;78.91;98730.86;229142;1190;139655;-76
2021/11/03 05:33:44;;;;;;;18.40;11.30;;;;;;;7.30;78.62;98740.64;229511;1190;140979;-75
2021/11/03 05:38:47;;;;;;;21.90;10.90;;;;;;;7.19;79.06;98743.93;229716;1190;140069;-76
2021/11/03 05:43:50;;;;;;;20.60;11.70;;;;;;;7.08;79.18;98751.55;229470;1190;207928;-70
2021/11/03 05:48:57;;;;;;;18.20;10.70;;;;;;;6.96;78.45;98750.56;229502;1190;236778;-77
2021/11/03 05:54:05;;;;;;;22.60;12.60;;;;;;;6.93;79.55;98760.28;228841;1192;140622;-76
2021/11/03 05:59:08;;;;;;;17.20;12.30;;;;;;;6.97;79.25;98766.52;229484;1190;140038;-76
2021/11/03 06:04:12;;;;;;;18.90;12.00;;;;;;;6.93;79.15;98774.50;230231;1190;140052;-76
2021/11/03 06:09:15;;;;;;;18.50;11.90;;;;;;;6.88;79.13;98784.34;230114;1190;142915;-77
2021/11/03 06:14:17;;;;;;;17.60;13.20;;;;;;;6.92;79.68;98800.80;229857;1190;139011;-76
2021/11/03 06:19:20;;;;;;;19.60;11.90;;;;;;;6.94;79.66;98804.73;230114;1190;138783;-77
2021/11/03 06:24:28;;;;;;;17.10;12.10;;;;;;;6.94;79.39;98811.40;230859;1190;150453;-77
2021/11/03 06:29:31;;;;;;;22.00;12.90;;;;;;;7.00;79.34;98821.38;231200;1190;139992;-75
2021/11/03 06:34:33;;;;;;;20.40;13.00;;;;;;;7.05;79.27;98824.43;230762;1190;140626;-76
2021/11/03 06:39:40;;;;;;;21.10;14.50;;;;;;;7.09;79.48;98831.31;230800;1190;140077;-75
2021/11/03 06:44:43;;;;;;;22.70;15.50;;;;;;;7.15;79.05;98835.55;230403;1190;140700;-76
2021/11/03 06:49:47;;;;;;;26.50;16.20;;;;;;;7.21;79.06;98846.02;230645;1190;155144;-77
2021/11/03 06:54:50;;;;;;;25.20;14.50;;;;;;;7.28;78.95;98860.94;229452;1190;152482;-76
2021/11/03 06:59:54;;;;;;;24.40;16.10;;;;;;;7.27;78.75;98865.55;229173;1190;162671;-74
2021/11/03 07:04:58;;;;;;;21.10;14.40;;;;;;;7.29;79.12;98867.39;229405;1190;141617;-74
2021/11/03 07:10:03;;;;;;;27.20;16.90;;;;;;;7.31;78.62;98870.55;229166;1190;139992;-75
2021/11/03 07:15:06;;;;;;;30.40;18.00;;;;;;;7.35;79.12;98877.00;230260;1190;139950;-75
2021/11/03 07:20:11;;;;;;;30.40;17.40;;;;;;;7.43;79.32;98878.85;229452;1190;139888;-75
2021/11/03 07:25:17;;;;;;;26.30;14.30;;;;;;;7.49;79.09;98879.49;229284;1190;140109;-69
2021/11/03 07:30:24;;;;;;;22.90;14.40;;;;;;;7.54;78.79;98878.02;229049;1190;141130;-71
2021/11/03 07:35:28;;;;;;;23.60;15.20;;;;;;;7.58;78.91;98870.71;229169;1190;209168;-71
2021/11/03 07:40:36;;;;;;;19.90;12.70;;;;;;;7.57;78.84;98878.86;230602;1190;138651;-70
2021/11/03 07:45:40;;;;;;;28.20;15.40;;;;;;;7.53;78.59;98880.44;229875;1190;139716;-75
2021/11/03 07:50:48;;;;;;;24.60;13.30;;;;;;;7.63;78.98;98882.69;230613;1184;141039;-76
2021/11/03 07:55:57;;;;;;;23.10;16.30;;;;;;;7.76;79.13;98885.48;230001;1190;139584;-72
2021/11/03 08:01:00;;;;;;;26.10;15.90;;;;;;;7.89;79.02;98883.81;229939;1183;139611;-75
2021/11/03 08:06:10;;;;;;;25.90;15.80;;;;;;;7.96;79.08;98882.39;229128;1190;139187;-70
2021/11/03 08:11:14;;;;;;;21.60;15.00;;;;;;;8.10;78.78;98889.33;230631;1190;139879;-75
2021/11/03 08:16:20;;;;;;;21.00;13.90;;;;;;;8.23;79.04;98887.60;230215;1190;139576;-74
2021/11/03 08:21:39;;;;;;;24.20;14.90;;;;;;;8.30;78.65;98890.61;231199;1190;139109;-74
2021/11/03 08:26:51;;;;;;;;;;;;;;;8.39;78.71;98900.10;230508;1190;139163;-74
2021/11/03 08:31:58;;;;;;;24.10;14.50;;;;;;;8.52;78.81;98899.31;231927;1190;125998;-75
2021/11/03 08:37:04;;;;;;;;;;;;;;;8.68;78.70;98900.60;231397;1190;140294;-74
2021/11/03 08:42:08;;;;;;;20.00;11.80;;;;;;;8.79;78.63;98900.79;232011;1190;126050;-73
2021/11/03 08:47:11;;;;;;;20.70;13.50;;;;;;;8.92;78.58;98900.17;231006;1190;139216;-76
2021/11/03 08:52:34;;;;;;;23.70;16.80;;;;;;;9.10;78.50;98910.38;230963;1190;140318;-73
2021/11/03 08:57:39;;;;;;;24.40;14.00;;;;;;;9.27;78.66;98912.88;229796;1190;231685;-76
2021/11/03 09:02:42;;;;;;;20.70;13.40;;;;;;;9.41;78.58;98918.93;229585;1177;139675;-75
2021/11/03 09:07:48;;;;;;;21.30;13.30;;;;;;;9.49;78.20;98921.14;229672;1190;140727;-75
2021/11/03 09:12:51;;;;;;;21.80;13.50;;;;;;;9.60;78.10;98932.98;229328;1190;140194;-72
2021/11/03 09:18:20;;;;;;;20.00;13.50;;;;;;;9.70;78.09;98938.86;229636;1190;139956;-71
2021/11/03 09:23:24;;;;;;;18.50;12.80;;;;;;;9.81;77.62;98941.63;229921;1190;139740;-73
2021/11/03 09:28:45;;;;;;;20.50;12.20;;;;;;;9.91;77.49;98941.91;229299;1190;139942;-73
2021/11/03 09:34:08;;;;;;;16.80;11.50;;;;;;;10.03;77.35;98949.46;229843;1190;161049;-77
2021/11/03 09:39:14;;;;;;;15.90;12.40;;;;;;;10.17;77.57;98955.73;230859;1190;138865;-77
2021/11/03 09:44:24;;;;;;;19.00;11.30;;;;;;;10.27;77.18;98955.22;229707;1190;139704;-76
2021/11/03 09:49:37;;;;;;;16.00;9.50;;;;;;;10.36;76.85;98949.39;230452;1189;142329;-80
2021/11/03 09:54:44;;;;;;;18.80;12.80;;;;;;;10.44;76.57;98949.29;229727;1190;139346;-75
2021/11/03 10:00:12;;;;;;;16.40;11.70;;;;;;;10.51;76.64;98955.33;229754;1190;138977;-71
2021/11/03 10:05:26;;;;;;;18.60;11.10;;;;;;;10.53;76.03;98952.95;230042;1190;140851;-74
2021/11/03 10:10:48;;;;;;;16.30;11.00;;;;;;;10.66;76.19;98952.54;230826;1190;140132;-73
2021/11/03 10:16:15;;;;;;;13.40;10.90;;;;;;;10.85;76.04;98944.95;230165;1190;139897;-74
2021/11/03 10:21:21;;;;;;;18.20;11.10;;;;;;;11.10;75.74;98942.13;229452;1190;161941;-73
2021/11/03 10:26:29;;;;;;;15.90;10.90;;;;;;;11.34;75.61;98942.64;231023;1190;141867;-74
2021/11/03 10:31:46;;;;;;;12.60;10.70;;;;;;;11.54;74.98;98950.05;231243;1190;139912;-77
2021/11/03 10:37:00;;;;;;;;;;;;;;;11.81;75.16;98958.15;231074;1190;139614;-77
2021/11/03 10:42:47;;;;;;;14.40;11.30;;;;;;;11.91;74.37;98960.55;232011;1190;126256;-75
2021/11/03 10:48:40;;;;;;;10.40;8.50;;;;;;;12.11;73.78;98956.33;230598;1190;139548;-73
2021/11/03 10:54:18;;;;;;;13.60;9.00;;;;;;;12.20;73.39;98963.02;230427;1190;139543;-73
2021/11/03 10:59:21;;;;;;;15.70;9.60;;;;;;;12.18;72.64;98970.98;229604;1190;139889;-71
2021/11/03 11:04:33;;;;;;;8.60;6.40;;;;;;;12.10;72.51;98975.35;229446;1190;139246;-69
2021/11/03 11:09:42;;;;;;;10.80;9.50;;;;;;;12.16;72.17;98966.49;229689;1190;140423;-70
2021/11/03 11:15:16;;;;;;;;;;;;;;;;;;;;;
2021/11/03 11:21:06;;;;;;;12.70;10.50;;;;;;;12.64;72.69;98971.39;230060;1190;138935;-77
2021/11/03 11:26:42;;;;;;;16.40;11.60;;;;;;;12.71;71.81;98979.09;229333;1192;141569;-78
2021/11/03 11:32:07;;;;;;;13.60;10.80;;;;;;;12.59;71.41;98973.66;229628;1190;139288;-77
2021/11/03 11:37:30;;;;;;;17.90;11.80;;;;;;;12.48;71.19;98971.53;229447;1190;138897;-82
2021/11/03 11:42:55;;;;;;;14.20;9.90;;;;;;;12.67;71.25;98962.98;229598;1191;139460;-72
2021/11/03 11:48:29;;;;;;;13.30;9.30;;;;;;;12.93;70.90;98950.94;230203;1190;140975;-74
2021/11/03 11:53:47;;;;;;;13.60;9.80;;;;;;;13.09;70.28;98941.94;229041;1190;139697;-76
2021/11/03 11:59:04;;;;;;;12.80;8.50;;;;;;;13.27;70.17;98933.42;229722;1191;140094;-74
2021/11/03 12:04:09;;;;;;;8.70;7.30;;;;;;;13.31;69.18;98928.54;229115;1190;139259;-70
2021/11/03 12:09:52;;;;;;;13.20;9.70;;;;;;;13.15;68.76;98921.33;229590;1190;138920;-75
2021/11/03 12:15:29;;;;;;;9.00;6.80;;;;;;;13.25;68.47;98919.88;229598;1184;140574;-73
2021/11/03 12:20:40;;;;;;;8.00;6.60;;;;;;;13.33;68.38;98928.16;229200;1192;140278;-71
2021/11/03 12:25:44;;;;;;;8.30;6.90;;;;;;;13.38;67.75;98932.92;230817;1190;140382;-70
2021/11/03 12:31:34;;;;;;;7.90;6.60;;;;;;;13.40;67.51;98937.04;231109;1191;140126;-69
2021/11/03 12:36:47;;;;;;;8.00;7.20;;;;;;;13.39;67.19;98941.20;230875;1191;139112;-75
2021/11/03 12:41:52;;;;;;;10.10;7.00;;;;;;;13.32;66.77;98937.52;231295;1190;140521;-78
2021/11/03 12:46:55;;;;;;;11.70;8.00;;;;;;;13.27;66.62;98936.63;231287;1190;139107;-77
2021/11/03 12:52:12;;;;;;;8.40;6.90;;;;;;;13.29;66.54;98937.75;231461;1190;139921;-79
2021/11/03 12:57:35;;;;;;;9.40;7.90;;;;;;;13.24;66.27;98935.13;229580;1190;139286;-79
2021/11/03 13:02:45;;;;;;;7.30;6.30;;;;;;;13.25;66.42;98945.67;229861;1190;139880;-80
2021/11/03 13:08:31;;;;;;;7.10;5.80;;;;;;;13.25;66.02;98949.58;229192;1190;139031;-77
2021/11/03 13:13:58;;;;;;;8.10;5.20;;;;;;;13.17;65.71;98949.33;229844;1190;139378;-79
2021/11/03 13:19:45;;;;;;;5.40;4.90;;;;;;;13.01;65.33;98956.23;229551;1183;139742;-78
2021/11/03 13:24:51;;;;;;;5.10;4.60;;;;;;;12.87;65.26;98962.50;229910;1190;138949;-81
2021/11/03 13:30:41;;;;;;;5.10;4.40;;;;;;;12.75;65.30;98962.45;229827;1190;139154;-82
2021/11/03 13:35:59;;;;;;;7.70;5.20;;;;;;;12.66;64.97;98968.60;229277;1190;139384;-72
2021/11/03 13:41:36;;;;;;;8.20;5.60;;;;;;;12.60;65.20;98962.92;229404;1190;140142;-79
2021/11/03 13:46:50;;;;;;;7.20;5.10;;;;;;;12.51;65.46;98954.52;229837;1190;140597;-77
2021/11/03 13:52:03;;;;;;;5.90;4.60;;;;;;;12.36;65.91;98957.77;229853;1190;139309;-82
2021/11/03 13:58:04;;;;;;;7.20;5.20;;;;;;;12.21;65.88;98957.48;230072;1190;138825;-77
2021/11/03 14:03:34;;;;;;;6.00;4.50;;;;;;;12.08;65.85;98963.16;230062;1190;138786;-78
2021/11/03 14:08:39;;;;;;;3.80;3.30;;;;;;;11.99;66.03;98966.21;229888;1190;140025;-76
2021/11/03 14:13:58;;;;;;;3.90;3.60;;;;;;;11.86;66.25;98963.15;230007;1190;141343;-78
2021/11/03 14:20:09;;;;;;;4.10;3.70;;;;;;;11.75;66.05;98968.20;230029;1190;140077;-80
2021/11/03 14:25:22;;;;;;;5.40;4.10;;;;;;;11.62;66.48;98968.34;230545;1190;140030;-75
2021/11/03 14:30:31;;;;;;;6.40;3.30;;;;;;;11.46;66.49;98963.46;230491;1190;140138;-77
2021/11/03 14:35:34;;;;;;;3.20;2.90;;;;;;;11.30;66.85;98958.69;230027;1190;139420;-75
2021/11/03 14:40:36;;;;;;;3.50;3.10;;;;;;;11.11;66.79;98956.86;230369;1190;140811;-77
2021/11/03 14:45:39;;;;;;;2.80;2.60;;;;;;;10.88;66.91;98960.27;231600;1190;138933;-77
2021/11/03 14:50:43;;;;;;;4.80;3.40;;;;;;;10.65;66.90;98963.29;231307;1190;140059;-76
2021/11/03 14:55:49;;;;;;;3.60;3.10;;;;;;;10.44;67.10;98956.17;230544;1190;140203;-76
2021/11/03 15:01:23;;;;;;;4.40;3.40;;;;;;;10.20;67.19;98944.10;230569;1190;139414;-77
2021/11/03 15:06:26;;;;;;;3.30;3.10;;;;;;;9.93;67.61;98945.08;229925;1190;141205;-79
2021/11/03 15:11:28;;;;;;;4.90;3.70;;;;;;;9.75;68.04;98953.13;229869;1190;139682;-78
2021/11/03 15:16:34;;;;;;;6.60;4.10;;;;;;;9.58;68.22;98949.30;230322;1190;139327;-73
2021/11/03 15:21:37;;;;;;;4.80;4.20;;;;;;;9.38;68.12;98955.05;229529;1190;139219;-74
2021/11/03 15:26:43;;;;;;;4.10;3.70;;;;;;;9.11;68.39;98950.95;230041;1190;139073;-75
2021/11/03 15:31:47;;;;;;;6.10;4.60;;;;;;;8.86;68.68;98951.86;229632;1190;160339;-76
2021/11/03 15:37:16;;;;;;;6.70;5.10;;;;;;;8.63;69.25;98959.56;229800;1190;160694;-76
2021/11/03 15:42:28;;;;;;;6.30;5.10;;;;;;;8.52;69.45;98967.42;229873;1190;140543;-75
2021/11/03 15:47:33;;;;;;;10.90;7.50;;;;;;;8.44;69.88;98974.23;230093;1192;149689;-72
2021/11/03 15:52:36;;;;;;;15.30;8.90;;;;;;;8.32;70.04;98976.93;229078;1190;139310;-73
2021/11/03 15:57:39;;;;;;;13.30;8.50;;;;;;;8.20;70.25;98973.56;229802;1190;139119;-74
2021/11/03 16:02:46;;;;;;;24.30;11.80;;;;;;;8.12;70.59;98975.54;230467;1190;139027;-73
2021/11/03 16:07:50;;;;;;;29.60;15.90;;;;;;;8.10;70.95;98979.33;230306;1177;140325;-73
2021/11/03 16:12:56;;;;;;;21.30;14.00;;;;;;;8.15;71.47;98982.70;229394;1190;139631;-71
2021/11/03 16:18:02;;;;;;;16.20;11.40;;;;;;;8.20;71.83;98982.76;229667;1190;141530;-70
2021/11/03 16:23:16;;;;;;;27.70;18.00;;;;;;;8.23;71.96;98982.83;229409;1190;140648;-76
2021/11/03 16:28:23;;;;;;;25.70;16.20;;;;;;;8.21;72.12;98985.64;230704;1191;139877;-75
2021/11/03 16:33:29;;;;;;;30.60;16.50;;;;;;;8.21;72.35;98985.52;230581;1190;140091;-74
2021/11/03 16:38:31;;;;;;;30.70;19.20;;;;;;;8.17;72.40;98985.45;231073;1190;139264;-75
2021/11/03 16:43:52;;;;;;;46.80;26.50;;;;;;;8.17;72.66;98982.58;230756;1190;140130;-74
2021/11/03 16:48:56;;;;;;;50.20;27.20;;;;;;;8.24;72.84;98981.33;230995;1190;140789;-74
2021/11/03 16:54:02;;;;;;;31.00;19.50;;;;;;;8.31;73.01;98976.22;230193;1190;140393;-70
2021/11/03 16:59:46;;;;;;;38.50;19.00;;;;;;;8.38;72.85;98979.23;230645;1190;139678;-72
2021/11/03 17:04:50;;;;;;;28.00;16.90;;;;;;;8.40;73.00;98985.58;230765;1190;138893;-73
2021/11/03 17:10:04;;;;;;;;;;;;;;;;;;;;;
2021/11/03 17:15:10;;;;;;;25.10;14.20;;;;;;;8.46;73.35;98980.05;230534;1190;139623;-75
2021/11/03 17:20:16;;;;;;;25.10;13.90;;;;;;;8.54;73.42;98977.38;230928;1190;140018;-75
2021/11/03 17:25:39;;;;;;;;;;;;;;;;;;;;;
2021/11/03 17:30:43;;;;;;;26.20;15.40;;;;;;;8.69;73.39;98974.06;229234;1192;140824;-76
2021/11/03 17:35:49;;;;;;;32.20;16.80;;;;;;;8.68;73.67;98980.63;229734;1190;140491;-78
2021/11/03 17:41:02;;;;;;;33.70;18.30;;;;;;;8.62;73.51;98974.14;229406;1190;139557;-76
2021/11/03 17:46:05;;;;;;;17.20;12.70;;;;;;;8.65;73.50;98971.45;230302;1190;139450;-75
2021/11/03 17:51:09;;;;;;;15.10;11.50;;;;;;;8.73;73.71;98958.77;229986;1190;141253;-71
2021/11/03 17:56:35;;;;;;;11.60;9.10;;;;;;;8.82;73.44;98957.65;229070;1190;139672;-72
2021/11/03 18:01:43;;;;;;;14.30;8.70;;;;;;;8.87;73.40;98957.50;230185;1190;139832;-72
2021/11/03 18:06:48;;;;;;;16.70;9.90;;;;;;;8.90;73.45;98963.77;228705;1190;139707;-72
2021/11/03 18:11:54;;;;;;;16.90;9.70;;;;;;;8.97;73.66;98962.65;229212;1190;139753;-72
2021/11/03 18:17:13;;;;;;;14.70;9.50;;;;;;;9.04;73.51;98965.42;229456;1190;139391;-73
2021/11/03 18:22:18;;;;;;;12.90;10.30;;;;;;;9.07;73.63;98965.64;229471;1190;140209;-72
2021/11/03 18:27:24;;;;;;;22.50;13.30;;;;;;;9.12;73.56;98955.55;229877;1190;142853;-72
2021/11/03 18:32:28;;;;;;;14.20;10.10;;;;;;;9.17;73.43;98946.40;229178;1190;140287;-72
2021/11/03 18:37:32;;;;;;;18.00;12.30;;;;;;;9.19;73.34;98941.64;229439;1190;154817;-73
2021/11/03 18:42:39;;;;;;;22.50;11.90;;;;;;;9.20;73.47;98939.09;231369;1190;228566;-74
2021/11/03 18:47:50;;;;;;;19.70;11.90;;;;;;;9.20;73.54;98934.26;231185;1190;139666;-73
2021/11/03 18:52:56;;;;;;;17.50;12.30;;;;;;;9.18;73.29;98938.70;230998;1190;140164;-74
2021/11/03 18:58:01;;;;;;;17.60;13.00;;;;;;;9.19;73.31;98941.11;230879;1190;139824;-75
2021/11/03 19:03:25;;;;;;;17.80;10.90;;;;;;;9.27;73.34;98933.51;230889;1190;140228;-72
2021/11/03 19:08:39;;;;;;;18.10;11.70;;;;;;;9.32;73.22;98928.95;231200;1190;140681;-75
2021/11/03 19:13:46;;;;;;;;;;;;;;;9.35;73.29;98931.61;229887;1190;138481;-75
2021/11/03 19:19:10;;;;;;;15.60;10.10;;;;;;;9.32;73.34;98934.80;230954;1190;125255;-72
2021/11/03 19:24:48;;;;;;;16.90;11.00;;;;;;;9.32;73.14;98940.70;230136;1190;139134;-70
2021/11/03 19:29:56;;;;;;;18.40;13.20;;;;;;;9.35;73.15;98939.42;229553;1190;141685;-77
2021/11/03 19:34:59;;;;;;;16.70;11.50;;;;;;;9.34;73.23;98949.47;229898;1190;139583;-76
2021/11/03 19:40:16;;;;;;;18.60;12.10;;;;;;;9.33;73.29;98952.01;230712;1190;139704;-76
2021/11/03 19:45:22;;;;;;;18.10;12.30;;;;;;;9.32;73.39;98965.19;230234;1190;139856;-78
2021/11/03 19:50:33;;;;;;;17.90;11.60;;;;;;;9.35;73.18;98963.73;230477;1190;140148;-79
2021/11/03 19:55:37;;;;;;;23.50;13.10;;;;;;;9.37;73.19;98967.07;229748;1190;139025;-82
2021/11/03 20:00:41;;;;;;;18.30;10.50;;;;;;;9.39;73.05;98967.25;229705;1190;140975;-80
2021/11/03 20:05:53;;;;;;;14.60;9.70;;;;;;;9.35;73.10;98962.41;229509;1190;140072;-78
2021/11/03 20:11:01;;;;;;;13.00;9.80;;;;;;;9.33;72.91;98963.13;229633;1190;140138;-75
2021/11/03 20:16:56;;;;;;;;;;;;;;;;;;;;;
2021/11/03 20:22:13;;;;;;;14.10;9.10;;;;;;;9.32;73.03;98940.87;229755;1190;139674;-77
2021/11/03 20:27:25;;;;;;;16.70;9.80;;;;;;;9.25;73.00;98939.33;229264;1190;141424;-70
2021/11/03 20:32:37;;;;;;;15.60;10.50;;;;;;;9.24;73.03;98940.49;229978;1177;141289;-70
2021/11/03 20:37:59;;;;;;;12.70;10.20;;;;;;;9.25;73.05;98939.92;230449;1190;141003;-75
2021/11/03 20:43:02;;;;;;;16.70;9.60;;;;;;;9.25;73.33;98937.20;231188;1190;139235;-78
2021/11/03 20:48:07;;;;;;;12.70;9.30;;;;;;;9.23;72.99;98932.91;230735;1190;140060;-77
2021/11/03 20:53:23;;;;;;;15.80;10.70;;;;;;;9.25;72.93;98918.70;231405;1190;140201;-76
2021/11/03 20:58:56;;;;;;;12.90;9.70;;;;;;;9.27;72.94;98911.87;231620;1190;139247;-78
2021/11/03 21:03:59;;;;;;;13.50;9.20;;;;;;;9.31;72.94;98923.08;230266;1190;140897;-76
2021/11/03 21:09:03;;;;;;;7.00;4.50;;;;;;;9.31;73.06;98937.98;230532;1190;138542;-73
2021/11/03 21:14:11;;;;;;;15.70;11.90;;;;;;;9.29;73.03;98943.96;230272;1190;138878;-75
2021/11/03 21:19:14;;;;;;;19.30;11.40;;;;;;;9.29;73.00;98947.11;230213;1190;140230;-72
2021/11/03 21:24:16;;;;;;;16.40;10.50;;;;;;;9.30;72.95;98949.46;229760;1190;140610;-72
2021/11/03 21:29:21;;;;;;;15.50;10.50;;;;;;;9.26;72.86;98941.80;229527;1190;140740;-71
2021/11/03 21:34:23;;;;;;;16.80;10.40;;;;;;;9.22;73.21;98941.20;229105;1190;141109;-72
2021/11/03 21:39:27;;;;;;;18.20;10.40;;;;;;;9.21;73.16;98939.49;229106;1190;141236;-70
2021/11/03 21:44:31;;;;;;;14.80;9.50;;;;;;;9.17;73.09;98945.94;229421;1190;140641;-69
2021/11/03 21:49:35;;;;;;;18.80;12.20;;;;;;;9.17;73.22;98939.23;229417;1190;141815;-70
2021/11/03 21:54:38;;;;;;;16.20;10.10;;;;;;;9.14;73.47;98936.86;229632;1190;140584;-71
2021/11/03 21:59:41;;;;;;;16.90;10.00;;;;;;;9.10;73.35;98937.43;229756;1190;139629;-71
2021/11/03 22:04:47;;;;;;;14.30;10.10;;;;;;;9.07;73.48;98928.14;230518;1190;140501;-71
2021/11/03 22:09:51;;;;;;;16.00;11.40;;;;;;;9.07;73.23;98930.23;229145;1190;140914;-69
2021/11/03 22:14:55;;;;;;;15.60;11.20;;;;;;;9.11;73.45;98922.94;228911;1190;139557;-69
2021/11/03 22:19:57;;;;;;;15.80;10.10;;;;;;;9.11;73.41;98914.75;229232;1190;139215;-70
2021/11/03 22:25:04;;;;;;;15.30;10.60;;;;;;;9.10;73.28;98917.23;229838;1190;139008;-72
2021/11/03 22:30:12;;;;;;;14.80;10.90;;;;;;;9.10;73.53;98923.69;228857;1190;139141;-70
2021/11/03 22:35:15;;;;;;;17.70;10.10;;;;;;;9.11;73.33;98909.77;230178;1190;140819;-70
2021/11/03 22:40:20;;;;;;;11.50;9.40;;;;;;;9.08;73.24;98925.08;231168;1190;140423;-69
2021/11/03 22:45:23;;;;;;;13.90;9.00;;;;;;;9.10;73.33;98927.81;231171;1189;140193;-71
2021/11/03 22:50:27;;;;;;;13.80;9.40;;;;;;;9.11;72.94;98933.20;231220;1190;139004;-71
2021/11/03 22:55:30;;;;;;;13.90;8.10;;;;;;;9.17;73.11;98943.48;231119;1190;140883;-70
2021/11/03 23:00:40;;;;;;;13.80;10.70;;;;;;;9.21;73.03;98935.08;230712;1190;139702;-70
2021/11/03 23:05:45;;;;;;;16.60;8.80;;;;;;;9.21;73.17;98928.33;231207;1190;139264;-75
2021/11/03 23:10:50;;;;;;;14.50;9.40;;;;;;;9.23;73.13;98927.06;229902;1190;139745;-71
2021/11/03 23:15:54;;;;;;;14.50;9.20;;;;;;;9.24;72.90;98926.02;229817;1190;140165;-72
2021/11/03 23:20:57;;;;;;;17.30;10.00;;;;;;;9.22;72.65;98929.88;230253;1190;141198;-73
2021/11/03 23:26:05;;;;;;;11.40;7.30;;;;;;;9.19;72.45;98932.88;229235;1190;139487;-70
2021/11/03 23:31:08;;;;;;;13.00;9.20;;;;;;;9.13;72.97;98929.79;230075;1190;139516;-75
2021/11/03 23:36:12;;;;;;;17.90;10.40;;;;;;;9.12;72.98;98930.61;229703;1192;139934;-74
2021/11/03 23:41:19;;;;;;;18.30;9.60;;;;;;;9.10;72.88;98925.48;229514;1190;139527;-71
2021/11/03 23:46:22;;;;;;;12.50;9.10;;;;;;;9.08;73.16;98930.81;229605;1190;139266;-69
2021/11/03 23:51:24;;;;;;;13.90;8.20;;;;;;;9.04;73.03;98933.85;229929;1190;139327;-71